Terminal Aerodrome Forecast
Issued by NWS

Home | Current Version | Previous Version | Graphics & Text | Print | Product List | Glossary On
Versions: 1 2 3 4 5 6 7 8 9 10 11 12 13 14 15
000
FTUS43 KBIS 162300
TAFMOT
TAF
KMOT 162334Z 1700/1724 03009KT P6SM BKN060
     FM171100 09007KT P6SM SCT120
     FM171900 12012KT P6SM BKN045=

USA.gov is the U.S. government's official web portal to all federal, state and local government web resources and services.